Time;durP1;ratioP1;P1;durP2;ratioP2;P2;SDS_P1;SDS_P2;PMS_P1;PMS_P2;Temp;Humidity;BMP_temperature;BMP_pressure;BME280_temperature;BME280_humidity;BME280_pressure;Samples;Min_cycle;Max_cycle;Signal;HPM_P1;HPM_P2
2023/04/25 00:02:15;;;;;;;23.60;11.90;;;;;;;19.55;35.36;99602.43;108231;1254;72621;-67
2023/04/25 00:04:43;;;;;;;22.50;11.00;;;;;;;19.45;35.56;99604.50;108241;1256;61134;-65
2023/04/25 00:07:11;;;;;;;21.80;12.30;;;;;;;19.50;35.59;99603.34;108222;1254;62176;-66
2023/04/25 00:09:37;;;;;;;28.20;14.60;;;;;;;19.49;35.67;99598.66;108185;1252;76111;-67
2023/04/25 00:12:05;;;;;;;21.00;11.50;;;;;;;19.46;35.74;99596.53;108216;1253;72478;-66
2023/04/25 00:14:33;;;;;;;28.60;12.80;;;;;;;19.45;35.74;99591.27;108233;1252;75083;-66
2023/04/25 00:17:02;;;;;;;25.20;13.00;;;;;;;19.45;35.72;99587.05;108204;1254;62243;-66
2023/04/25 00:19:29;;;;;;;25.70;14.00;;;;;;;19.52;35.68;99586.66;108229;1254;60422;-65
2023/04/25 00:21:56;;;;;;;29.40;12.40;;;;;;;19.51;35.69;99588.48;108203;1253;75734;-66
2023/04/25 00:24:23;;;;;;;26.90;13.20;;;;;;;19.56;35.55;99586.02;108202;1253;69113;-66
2023/04/25 00:26:49;;;;;;;22.70;12.20;;;;;;;19.47;35.59;99587.55;108195;1254;74747;-65
2023/04/25 00:29:16;;;;;;;26.60;12.20;;;;;;;19.54;35.36;99585.80;108220;1252;62500;-65
2023/04/25 00:31:43;;;;;;;26.90;12.60;;;;;;;19.40;35.61;99588.30;108273;1253;62404;-65
2023/04/25 00:34:10;;;;;;;26.80;12.10;;;;;;;19.24;35.88;99581.67;108318;1254;73751;-66
2023/04/25 00:36:37;;;;;;;19.50;11.00;;;;;;;19.24;35.83;99575.92;108196;1254;71389;-68
2023/04/25 00:39:04;;;;;;;22.10;9.80;;;;;;;19.19;35.83;99573.14;108190;1254;75338;-66
2023/04/25 00:41:31;;;;;;;22.30;10.60;;;;;;;19.19;35.86;99570.30;108215;1253;63254;-66
2023/04/25 00:43:59;;;;;;;19.10;10.90;;;;;;;19.12;35.92;99571.39;108184;1253;61708;-67
2023/04/25 00:46:26;;;;;;;24.20;11.70;;;;;;;18.90;36.41;99571.23;108226;1254;74853;-66
2023/04/25 00:48:52;;;;;;;17.20;9.20;;;;;;;19.09;36.01;99571.45;108186;1253;72115;-66
2023/04/25 00:51:20;;;;;;;16.20;9.50;;;;;;;19.20;35.83;99574.14;108146;1254;72046;-66
2023/04/25 00:53:48;;;;;;;19.80;11.30;;;;;;;19.10;35.93;99581.73;108146;1254;62862;-66
2023/04/25 00:56:16;;;;;;;21.60;11.70;;;;;;;19.13;35.88;99573.64;108076;1253;60894;-67
2023/04/25 00:58:43;;;;;;;18.30;11.10;;;;;;;18.86;36.28;99575.81;108183;1252;74998;-67
2023/04/25 01:01:10;;;;;;;18.20;10.70;;;;;;;18.65;36.67;99573.73;108196;1254;70787;-66
2023/04/25 01:03:40;;;;;;;16.00;10.10;;;;;;;18.62;36.72;99574.27;108212;1253;74906;-65
2023/04/25 01:06:09;;;;;;;17.50;10.60;;;;;;;18.69;36.58;99566.84;108164;1253;63304;-64
2023/04/25 01:08:37;;;;;;;20.40;10.20;;;;;;;18.71;36.68;99568.27;108191;1252;62528;-65
2023/04/25 01:11:04;;;;;;;16.80;10.40;;;;;;;18.66;36.96;99568.31;108253;1256;75084;-66
2023/04/25 01:13:31;;;;;;;16.90;10.00;;;;;;;18.41;37.79;99569.00;108214;1254;72347;-66
2023/04/25 01:15:59;;;;;;;17.30;10.40;;;;;;;18.64;37.75;99569.20;108113;1257;72950;-66
2023/04/25 01:18:26;;;;;;;20.90;11.50;;;;;;;18.75;37.45;99565.27;108102;1258;63105;-64
2023/04/25 01:20:53;;;;;;;17.40;10.40;;;;;;;18.85;37.30;99565.59;108121;1254;62351;-66
2023/04/25 01:23:21;;;;;;;17.50;10.00;;;;;;;18.94;37.00;99566.63;108164;1253;75860;-66
2023/04/25 01:25:48;;;;;;;19.10;11.10;;;;;;;19.25;36.70;99563.21;108197;1254;70284;-66
2023/04/25 01:28:16;;;;;;;17.80;10.20;;;;;;;19.14;36.68;99560.55;108243;1252;73402;-66
2023/04/25 01:30:42;;;;;;;16.30;10.10;;;;;;;18.88;37.12;99559.98;108176;1252;62067;-67
2023/04/25 01:33:09;;;;;;;20.10;10.70;;;;;;;18.74;37.30;99563.94;108225;1252;62259;-68
2023/04/25 01:35:36;;;;;;;17.20;10.10;;;;;;;18.56;37.44;99565.75;108091;1254;76375;-64
2023/04/25 01:38:03;;;;;;;21.40;11.50;;;;;;;18.62;37.27;99564.01;108189;1253;72387;-67
2023/04/25 01:40:32;;;;;;;24.30;10.90;;;;;;;18.87;36.93;99561.18;108280;1253;72761;-68
2023/04/25 01:42:58;;;;;;;19.40;11.70;;;;;;;19.03;36.59;99559.88;107901;1252;63359;-66
2023/04/25 01:45:25;;;;;;;20.30;12.30;;;;;;;18.91;36.79;99554.80;107874;1253;60555;-66
2023/04/25 01:47:52;;;;;;;21.20;11.60;;;;;;;18.78;37.30;99556.52;108204;1254;75571;-66
2023/04/25 01:50:19;;;;;;;17.60;10.60;;;;;;;18.92;36.99;99558.80;108140;1254;71909;-65
2023/04/25 01:52:47;;;;;;;17.40;11.90;;;;;;;19.16;36.42;99555.44;108046;1253;72551;-66
2023/04/25 01:55:14;;;;;;;18.40;12.10;;;;;;;19.08;36.68;99554.27;108090;1254;63409;-67
2023/04/25 01:57:55;;;;;;;;;;;;;;;18.83;37.12;99555.27;108160;1253;62519;-67
2023/04/25 02:00:32;;;;;;;20.00;12.80;;;;;;;19.17;36.84;99552.88;108058;1254;75600;-67
2023/04/25 02:02:59;;;;;;;21.50;13.90;;;;;;;19.01;37.93;99555.96;108211;1254;72080;-67
2023/04/25 02:05:35;;;;;;;17.50;11.00;;;;;;;19.29;38.31;99552.52;108126;1254;72748;-67
2023/04/25 02:08:08;;;;;;;20.00;13.00;;;;;;;19.56;38.07;99548.17;108024;1254;63103;-68
2023/04/25 02:10:35;;;;;;;24.30;13.00;;;;;;;19.86;37.69;99548.02;108162;1252;60191;-69
2023/04/25 02:13:18;;;;;;;19.20;11.70;;;;;;;19.46;38.07;99545.06;108123;1256;73236;-68
2023/04/25 02:15:57;;;;;;;18.90;11.80;;;;;;;19.88;37.29;99536.20;108081;1253;72736;-68
2023/04/25 02:18:26;;;;;;;15.80;11.30;;;;;;;20.31;36.11;99535.63;108038;1254;70945;-67
2023/04/25 02:20:53;;;;;;;18.00;10.80;;;;;;;20.18;35.91;99536.17;108149;1254;63392;-64
2023/04/25 02:23:20;;;;;;;15.50;9.80;;;;;;;20.28;35.77;99531.04;108166;1254;62671;-66
2023/04/25 02:25:46;;;;;;;22.40;11.70;;;;;;;20.25;35.52;99530.98;108199;1254;75612;-66
2023/04/25 02:28:13;;;;;;;16.90;9.80;;;;;;;20.30;35.37;99526.27;108117;1253;70909;-67
2023/04/25 02:30:40;;;;;;;21.00;12.20;;;;;;;20.02;35.51;99525.95;108164;1257;74769;-68
2023/04/25 02:33:07;;;;;;;19.20;12.00;;;;;;;19.89;35.56;99522.48;108103;1257;62138;-67
2023/04/25 02:35:35;;;;;;;14.30;9.00;;;;;;;19.98;35.38;99520.27;108214;1254;62554;-66
2023/04/25 02:38:02;;;;;;;17.00;11.00;;;;;;;19.61;36.05;99520.22;108279;1254;73737;-67
2023/04/25 02:40:29;;;;;;;17.30;10.70;;;;;;;19.23;36.49;99519.26;108178;1254;72196;-67
2023/04/25 02:42:56;;;;;;;23.60;12.20;;;;;;;19.18;36.70;99518.96;108171;1254;75020;-68
2023/04/25 02:45:25;;;;;;;20.30;11.60;;;;;;;19.46;36.32;99521.42;108129;1257;62243;-66
2023/04/25 02:47:52;;;;;;;23.00;12.40;;;;;;;19.47;36.28;99519.91;108208;1253;61380;-65
2023/04/25 02:50:19;;;;;;;20.80;13.30;;;;;;;19.23;36.82;99521.37;108158;1254;75639;-60
2023/04/25 02:52:46;;;;;;;16.90;11.10;;;;;;;19.24;37.17;99521.45;108228;1254;71597;-67
2023/04/25 02:55:18;;;;;;;18.60;11.70;;;;;;;19.54;36.74;99519.58;108200;1254;74596;-65
2023/04/25 02:57:45;;;;;;;22.30;12.40;;;;;;;19.43;37.31;99529.73;108098;1255;62109;-68
2023/04/25 03:00:15;;;;;;;18.40;11.70;;;;;;;18.91;38.69;99533.98;108189;1256;60341;-67
2023/04/25 03:02:42;;;;;;;22.20;13.70;;;;;;;18.79;38.82;99535.46;108184;1254;75924;-67
2023/04/25 03:05:57;;;;;;;19.70;12.20;;;;;;;19.24;38.24;99528.45;108256;1254;71016;-68
2023/04/25 03:08:46;;;;;;;20.60;12.70;;;;;;;18.85;38.49;99527.36;108137;1254;71150;-66
2023/04/25 03:11:31;;;;;;;21.60;13.60;;;;;;;18.25;39.24;99529.27;108137;1254;61458;-67
2023/04/25 03:14:18;;;;;;;22.40;13.80;;;;;;;18.34;39.22;99529.97;108186;1253;61767;-66
2023/04/25 03:16:45;;;;;;;19.20;11.40;;;;;;;19.06;38.09;99528.83;108101;1254;75875;-67
2023/04/25 03:19:12;;;;;;;22.80;13.30;;;;;;;19.38;37.88;99532.60;108220;1254;72542;-67
2023/04/25 03:21:38;;;;;;;20.10;12.70;;;;;;;19.67;37.81;99524.54;108115;1254;73189;-68
2023/04/25 03:24:05;;;;;;;15.80;9.80;;;;;;;20.01;37.36;99530.89;108159;1253;60443;-67
2023/04/25 03:26:32;;;;;;;22.60;12.00;;;;;;;20.14;37.36;99526.96;108157;1253;62546;-66
2023/04/25 03:28:59;;;;;;;18.70;12.40;;;;;;;20.60;36.82;99528.46;108064;1254;76272;-68
2023/04/25 03:31:26;;;;;;;17.20;12.60;;;;;;;21.25;35.90;99529.60;108032;1254;70927;-68
2023/04/25 03:33:53;;;;;;;19.40;11.90;;;;;;;21.70;35.35;99524.05;108065;1257;73026;-67
2023/04/25 03:36:21;;;;;;;22.90;10.80;;;;;;;22.09;34.75;99525.40;108029;1255;62631;-67
2023/04/25 03:38:48;;;;;;;16.10;11.00;;;;;;;21.96;34.90;99529.52;108160;1253;61442;-68
2023/04/25 03:41:15;;;;;;;18.60;11.10;;;;;;;22.23;34.57;99529.45;108167;1254;74116;-68
2023/04/25 03:43:46;;;;;;;18.10;10.30;;;;;;;22.65;34.02;99529.08;108189;1254;69410;-68
2023/04/25 03:46:13;;;;;;;24.30;11.80;;;;;;;23.11;33.49;99528.46;108230;1254;74445;-68
2023/04/25 03:48:41;;;;;;;16.00;10.10;;;;;;;23.34;33.20;99525.48;108162;1253;63699;-70
2023/04/25 03:51:08;;;;;;;24.40;10.50;;;;;;;23.54;32.74;99528.88;108150;1252;62727;-69
2023/04/25 03:53:37;;;;;;;18.00;11.00;;;;;;;23.72;32.39;99528.73;108137;1253;73963;-68
2023/04/25 03:56:20;;;;;;;18.00;10.20;;;;;;;23.84;32.25;99522.96;108186;1254;70728;-70
2023/04/25 03:58:51;;;;;;;16.90;11.10;;;;;;;24.07;31.94;99517.98;108132;1254;74100;-68
2023/04/25 04:01:19;;;;;;;16.10;10.10;;;;;;;24.40;31.62;99520.65;108160;1254;63081;-70
2023/04/25 04:03:46;;;;;;;15.20;9.50;;;;;;;24.63;31.29;99523.39;108179;1256;62479;-69
2023/04/25 04:06:14;;;;;;;18.70;10.00;;;;;;;25.06;30.81;99526.41;108112;1258;74448;-68
2023/04/25 04:08:44;;;;;;;;;;;;;;;25.62;30.02;99520.55;108252;1253;70623;-68
2023/04/25 04:11:11;;;;;;;18.00;9.50;;;;;;;25.86;29.50;99516.68;108051;1254;76031;-66
2023/04/25 04:13:38;;;;;;;16.20;10.20;;;;;;;25.98;29.10;99518.63;108090;1257;62318;-68
2023/04/25 04:16:06;;;;;;;20.50;9.90;;;;;;;26.05;28.88;99518.67;108232;1253;62009;-69
2023/04/25 04:18:33;;;;;;;17.20;10.00;;;;;;;26.45;28.61;99523.90;108210;1254;76055;-68
2023/04/25 04:21:01;;;;;;;20.70;10.70;;;;;;;26.83;27.92;99519.58;108178;1254;71529;-69
2023/04/25 04:23:31;;;;;;;14.80;9.60;;;;;;;27.36;27.38;99514.80;108117;1256;75664;-69
2023/04/25 04:25:58;;;;;;;20.00;10.90;;;;;;;27.72;26.93;99513.77;108081;1254;60441;-68
2023/04/25 04:28:28;;;;;;;17.70;10.10;;;;;;;27.71;26.83;99510.21;108055;1254;60397;-66
2023/04/25 04:31:07;;;;;;;18.70;9.00;;;;;;;27.87;26.21;99504.94;108143;1256;75811;-67
2023/04/25 04:33:34;;;;;;;19.10;9.70;;;;;;;28.45;25.82;99506.10;108090;1254;68864;-66
2023/04/25 04:36:03;;;;;;;18.00;8.90;;;;;;;28.02;25.76;99507.06;108011;1254;74636;-67
2023/04/25 04:38:31;;;;;;;14.70;8.40;;;;;;;27.87;25.82;99503.67;108102;1255;62307;-69
2023/04/25 04:41:01;;;;;;;17.30;8.40;;;;;;;27.88;25.65;99498.73;108060;1253;61673;-70
2023/04/25 04:43:39;;;;;;;13.90;8.70;;;;;;;28.19;25.56;99501.64;108150;1256;74751;-68
2023/04/25 04:46:28;;;;;;;15.90;8.60;;;;;;;28.10;25.63;99497.17;108121;1254;72130;-68
2023/04/25 04:49:10;;;;;;;13.40;7.80;;;;;;;28.47;25.30;99498.39;108131;1256;72642;-68
2023/04/25 04:51:54;;;;;;;13.40;8.50;;;;;;;29.16;24.68;99500.76;108006;1254;62037;-68
2023/04/25 04:56:52;;;;;;;11.30;7.90;;;;;;;26.77;27.43;99501.05;104935;1289;600397;-69
2023/04/25 04:59:28;;;;;;;12.30;7.40;;;;;;;28.85;25.25;99499.20;107286;1269;62724;-71
2023/04/25 05:02:04;;;;;;;18.20;7.80;;;;;;;29.75;24.33;99490.02;107253;1264;62394;-70
2023/04/25 05:04:54;;;;;;;17.40;8.40;;;;;;;30.30;23.73;99490.23;107221;1265;74254;-69
2023/04/25 05:07:40;;;;;;;15.70;7.90;;;;;;;30.71;23.07;99491.57;107204;1267;72538;-70
2023/04/25 05:10:26;;;;;;;11.50;7.30;;;;;;;31.61;22.16;99495.70;107083;1264;255517;-68
2023/04/25 05:13:07;;;;;;;;;;;;;;;31.63;22.25;99499.05;107392;1263;61232;-68
2023/04/25 05:15:56;;;;;;;10.10;7.30;;;;;;;31.25;22.08;99499.27;107213;1263;60879;-70
2023/04/25 05:18:42;;;;;;;14.60;7.30;;;;;;;31.61;22.08;99499.30;107385;1263;74025;-69
2023/04/25 05:21:22;;;;;;;12.20;6.60;;;;;;;31.72;21.80;99497.95;107398;1263;72554;-68
2023/04/25 05:24:01;;;;;;;11.90;5.70;;;;;;;31.33;21.81;99496.95;107304;1263;74703;-68
2023/04/25 05:26:47;;;;;;;17.10;7.90;;;;;;;31.42;21.93;99495.84;107329;1263;60298;-68
2023/04/25 05:29:43;;;;;;;13.90;6.80;;;;;;;31.58;22.13;99490.52;107228;1269;63050;-69
2023/04/25 05:32:17;;;;;;;12.20;7.30;;;;;;;31.51;22.02;99490.30;107329;1263;75375;-67
2023/04/25 05:34:46;;;;;;;14.10;7.20;;;;;;;31.26;22.45;99487.86;107343;1263;70910;-68
2023/04/25 05:37:26;;;;;;;12.30;6.70;;;;;;;31.56;22.58;99485.84;107396;1263;74816;-69
2023/04/25 05:40:06;;;;;;;8.50;6.50;;;;;;;31.93;22.05;99480.65;107325;1263;61754;-69
2023/04/25 05:43:08;;;;;;;10.90;6.30;;;;;;;32.51;21.68;99481.34;107233;1263;61421;-68
2023/04/25 05:45:56;;;;;;;16.90;7.10;;;;;;;32.97;21.06;99483.91;107324;1263;72506;-67
2023/04/25 05:48:26;;;;;;;10.90;6.00;;;;;;;33.17;21.04;99484.30;107307;1263;71051;-69
2023/04/25 05:50:59;;;;;;;11.40;5.70;;;;;;;33.40;20.57;99487.77;107283;1263;73900;-69
2023/04/25 05:53:58;;;;;;;12.40;6.80;;;;;;;33.04;20.34;99490.05;107060;1263;62422;-69
2023/04/25 05:56:26;;;;;;;11.80;6.50;;;;;;;32.86;20.75;99487.91;107168;1266;61773;-70
2023/04/25 05:58:53;;;;;;;14.40;7.20;;;;;;;33.18;20.60;99486.91;107951;1253;73455;-68
2023/04/25 06:01:21;;;;;;;11.90;7.20;;;;;;;32.80;20.63;99484.16;108058;1254;71770;-68
2023/04/25 06:03:48;;;;;;;8.50;7.10;;;;;;;32.71;20.89;99480.09;108009;1257;73440;-69
2023/04/25 06:06:16;;;;;;;15.90;7.90;;;;;;;32.70;20.82;99481.19;107993;1256;62248;-68
2023/04/25 06:08:43;;;;;;;10.30;6.70;;;;;;;33.13;20.52;99478.33;107894;1254;61522;-69
2023/04/25 06:11:11;;;;;;;11.70;5.90;;;;;;;33.43;20.16;99474.31;107949;1254;74304;-66
2023/04/25 06:13:38;;;;;;;11.70;6.70;;;;;;;33.15;20.40;99481.19;107955;1254;68132;-69
2023/04/25 06:16:06;;;;;;;17.60;7.90;;;;;;;32.60;20.90;99477.39;108119;1254;72997;-69
2023/04/25 06:18:33;;;;;;;13.70;8.20;;;;;;;32.62;20.99;99479.09;108029;1254;61560;-69
2023/04/25 06:21:00;;;;;;;15.20;7.30;;;;;;;32.99;20.88;99480.55;108032;1254;59511;-69
2023/04/25 06:23:27;;;;;;;10.70;7.30;;;;;;;33.20;20.56;99476.36;107944;1254;72950;-67
2023/04/25 06:26:03;;;;;;;10.90;7.70;;;;;;;32.94;20.66;99473.26;108003;1253;70651;-68
2023/04/25 06:28:30;;;;;;;11.30;6.90;;;;;;;33.25;20.44;99470.27;107881;1254;74605;-68
2023/04/25 06:30:58;;;;;;;11.20;7.50;;;;;;;33.07;20.73;99473.38;108051;1254;62535;-67
2023/04/25 06:33:26;;;;;;;11.60;7.00;;;;;;;33.18;20.46;99472.09;107914;1260;60359;-68
2023/04/25 06:35:53;;;;;;;11.80;7.50;;;;;;;33.47;20.52;99471.54;107893;1254;75197;-68
2023/04/25 06:38:23;;;;;;;13.30;8.20;;;;;;;33.99;19.98;99469.09;108020;1258;73220;-71
2023/04/25 06:40:51;;;;;;;16.10;8.30;;;;;;;34.28;20.23;99465.67;107986;1256;75057;-69
2023/04/25 06:43:18;;;;;;;12.70;7.70;;;;;;;34.84;19.87;99461.61;107858;1254;62203;-69
2023/04/25 06:46:14;;;;;;;17.70;8.30;;;;;;;35.47;18.99;99461.30;107703;1254;59535;-67
2023/04/25 06:48:43;;;;;;;17.30;7.60;;;;;;;35.70;18.66;99460.69;107766;1254;65044;-67
2023/04/25 06:51:10;;;;;;;13.90;7.10;;;;;;;36.04;18.48;99458.54;108067;1253;63530;-67
2023/04/25 06:53:38;;;;;;;9.90;6.80;;;;;;;35.94;18.49;99462.52;108097;1254;64887;-71
2023/04/25 06:56:06;;;;;;;19.40;6.60;;;;;;;36.22;17.98;99454.53;108161;1254;59612;-69
2023/04/25 06:58:45;;;;;;;11.80;6.00;;;;;;;35.57;18.15;99450.67;108214;1254;59842;-69
2023/04/25 07:01:19;;;;;;;11.00;6.10;;;;;;;35.62;18.27;99452.08;108072;1254;65481;-69
2023/04/25 07:03:46;;;;;;;11.00;5.20;;;;;;;35.72;17.94;99452.04;107962;1254;63971;-69
2023/04/25 07:06:16;;;;;;;8.40;4.50;;;;;;;35.65;16.93;99450.21;107941;1256;66015;-69
2023/04/25 07:08:43;;;;;;;8.60;4.40;;;;;;;35.28;16.86;99450.02;107906;1254;59620;-70
2023/04/25 07:11:09;;;;;;;7.00;4.30;;;;;;;35.13;17.09;99451.58;107995;1254;59900;-68
2023/04/25 07:13:36;;;;;;;7.60;4.10;;;;;;;34.81;17.52;99454.74;107920;1253;75035;-68
2023/04/25 07:16:04;;;;;;;9.50;4.30;;;;;;;35.02;17.14;99451.67;108093;1254;72196;-68
2023/04/25 07:18:32;;;;;;;12.00;4.40;;;;;;;34.76;17.53;99446.75;108061;1254;73517;-68
2023/04/25 07:20:59;;;;;;;7.50;4.10;;;;;;;34.87;17.41;99445.12;108105;1254;61855;-68
2023/04/25 07:23:27;;;;;;;6.20;3.40;;;;;;;35.12;16.75;99444.51;108131;1254;59570;-69
2023/04/25 07:25:54;;;;;;;8.30;4.00;;;;;;;35.29;16.69;99444.92;108021;1254;66804;-68
2023/04/25 07:28:21;;;;;;;8.10;3.80;;;;;;;35.12;16.95;99445.15;107985;1254;72421;-69
2023/04/25 07:30:48;;;;;;;7.70;4.20;;;;;;;35.37;16.93;99441.19;107951;1256;65280;-68
2023/04/25 07:33:15;;;;;;;9.10;4.10;;;;;;;35.62;17.02;99442.00;107937;1254;59597;-69
2023/04/25 07:35:43;;;;;;;10.10;3.60;;;;;;;35.30;17.07;99439.02;108021;1254;62638;-69
2023/04/25 07:38:10;;;;;;;13.30;4.60;;;;;;;35.03;17.28;99438.63;107921;1254;66392;-69
2023/04/25 07:40:37;;;;;;;7.00;4.00;;;;;;;35.36;17.35;99444.07;108040;1254;70990;-68
2023/04/25 07:43:06;;;;;;;8.30;4.00;;;;;;;35.10;17.34;99443.42;108006;1258;65979;-69
2023/04/25 07:45:38;;;;;;;7.80;3.90;;;;;;;35.31;16.94;99440.55;107864;1253;59541;-70
2023/04/25 07:48:06;;;;;;;7.70;4.00;;;;;;;35.48;16.27;99433.38;108068;1254;59715;-69
2023/04/25 07:50:35;;;;;;;7.00;3.30;;;;;;;35.28;16.68;99434.67;107964;1254;66500;-69
2023/04/25 07:53:02;;;;;;;7.40;3.40;;;;;;;35.71;16.48;99429.92;107970;1253;62834;-67
2023/04/25 07:55:33;;;;;;;9.40;4.10;;;;;;;36.12;16.25;99427.80;108085;1254;66266;-69
2023/04/25 07:58:09;;;;;;;9.70;3.60;;;;;;;35.80;15.94;99429.11;107951;1257;59818;-70
2023/04/25 08:00:37;;;;;;;9.10;3.80;;;;;;;35.90;15.97;99426.10;107955;1254;59968;-69
2023/04/25 08:03:37;;;;;;;8.30;3.70;;;;;;;35.90;15.97;99421.99;107880;1254;66475;-70
2023/04/25 08:06:08;;;;;;;5.90;3.40;;;;;;;35.74;15.73;99417.85;108034;1254;63584;-69
2023/04/25 08:08:43;;;;;;;8.10;3.60;;;;;;;35.03;16.12;99430.95;107844;1254;66302;-68
2023/04/25 08:11:12;;;;;;;7.10;3.90;;;;;;;34.53;16.33;99421.80;107968;1254;59411;-68
2023/04/25 08:13:39;;;;;;;8.50;3.60;;;;;;;34.32;16.79;99423.83;108056;1254;62237;-68
2023/04/25 08:16:06;;;;;;;5.20;3.40;;;;;;;34.87;16.39;99413.52;107946;1254;73648;-68
2023/04/25 08:18:34;;;;;;;9.00;3.80;;;;;;;35.47;15.97;99410.82;108046;1254;63272;-69
2023/04/25 08:21:01;;;;;;;8.20;3.30;;;;;;;36.22;15.47;99413.86;107985;1253;66038;-69
2023/04/25 08:23:27;;;;;;;6.40;3.40;;;;;;;36.31;14.98;99413.95;107955;1253;59494;-68
2023/04/25 08:26:04;;;;;;;11.80;3.00;;;;;;;36.78;14.99;99414.56;108071;1254;59153;-68
2023/04/25 08:28:32;;;;;;;6.70;2.60;;;;;;;37.27;14.94;99411.43;107955;1254;66500;-69
2023/04/25 08:30:59;;;;;;;10.70;3.50;;;;;;;36.74;14.70;99415.75;108036;1259;72443;-69
2023/04/25 08:33:32;;;;;;;5.40;2.80;;;;;;;35.95;15.10;99410.94;108116;1254;66291;-70
2023/04/25 08:36:19;;;;;;;10.20;4.20;;;;;;;35.63;15.48;99410.09;107964;1254;59526;-69
2023/04/25 08:39:04;;;;;;;7.10;3.50;;;;;;;35.42;15.29;99411.02;107865;1254;59506;-70
2023/04/25 08:41:31;;;;;;;9.10;3.60;;;;;;;35.25;15.39;99407.98;107911;1254;66233;-68
2023/04/25 08:44:00;;;;;;;6.20;3.50;;;;;;;34.76;15.73;99405.73;107829;1253;70305;-68
2023/04/25 08:46:27;;;;;;;7.60;3.20;;;;;;;35.34;15.37;99398.02;107762;1254;66336;-69
2023/04/25 08:49:04;;;;;;;6.70;3.00;;;;;;;35.81;15.19;99392.33;107846;1254;60989;-70
2023/04/25 08:51:32;;;;;;;5.60;3.00;;;;;;;36.11;15.03;99392.21;107923;1254;59855;-69
2023/04/25 08:54:13;;;;;;;5.50;3.30;;;;;;;36.24;14.71;99393.67;108021;1254;65957;-70
2023/04/25 08:56:46;;;;;;;7.40;3.00;;;;;;;36.25;14.46;99391.23;108059;1254;63780;-69
2023/04/25 08:59:13;;;;;;;6.60;2.40;;;;;;;36.37;14.19;99389.80;107871;1254;66241;-69
2023/04/25 09:01:41;;;;;;;7.60;2.70;;;;;;;36.54;14.32;99389.35;107873;1257;59690;-70
2023/04/25 09:04:09;;;;;;;5.50;2.70;;;;;;;36.63;14.14;99390.14;108131;1253;59754;-70
2023/04/25 09:06:36;;;;;;;8.30;2.90;;;;;;;36.01;14.17;99385.95;108041;1254;66375;-69
2023/04/25 09:09:04;;;;;;;7.40;3.40;;;;;;;35.35;15.01;99388.31;108027;1253;63741;-69
2023/04/25 09:11:33;;;;;;;5.50;2.90;;;;;;;35.38;15.18;99382.16;108093;1254;65023;-69
2023/04/25 09:14:14;;;;;;;7.10;3.20;;;;;;;35.71;15.28;99374.94;108051;1259;60314;-69
2023/04/25 09:17:04;;;;;;;5.70;2.90;;;;;;;36.18;14.76;99374.89;107986;1254;60579;-70
2023/04/25 09:19:40;;;;;;;7.90;2.90;;;;;;;35.92;14.83;99373.57;108040;1254;66967;-69
2023/04/25 09:22:22;;;;;;;7.10;2.80;;;;;;;35.24;15.05;99366.91;107928;1254;64187;-69
2023/04/25 09:24:50;;;;;;;6.30;2.90;;;;;;;35.63;14.69;99370.88;108036;1255;74322;-70
2023/04/25 09:27:22;;;;;;;7.40;3.10;;;;;;;35.36;15.03;99367.29;107964;1254;60345;-69
2023/04/25 09:29:59;;;;;;;5.90;3.20;;;;;;;34.23;16.06;99368.44;107944;1259;62139;-69
2023/04/25 09:32:26;;;;;;;6.60;3.40;;;;;;;34.00;16.17;99369.92;108145;1254;67422;-69
2023/04/25 09:34:56;;;;;;;7.70;3.30;;;;;;;33.98;16.38;99376.52;108113;1254;73229;-69
2023/04/25 09:37:29;;;;;;;8.50;3.00;;;;;;;33.55;16.36;99368.27;107980;1254;75028;-70
2023/04/25 09:40:26;;;;;;;4.30;3.00;;;;;;;33.58;16.50;99359.84;107879;1254;61738;-69
2023/04/25 09:43:09;;;;;;;5.00;3.20;;;;;;;34.05;16.23;99358.44;108030;1254;62507;-69
2023/04/25 09:45:45;;;;;;;7.20;3.00;;;;;;;34.37;16.21;99361.47;108000;1254;67301;-67
2023/04/25 09:48:22;;;;;;;8.40;3.10;;;;;;;35.17;15.63;99351.64;107990;1254;63639;-69
2023/04/25 09:51:05;;;;;;;6.20;3.00;;;;;;;35.22;15.30;99351.27;107957;1253;66212;-69
2023/04/25 09:53:51;;;;;;;9.50;3.20;;;;;;;34.57;16.35;99350.73;108064;1254;62479;-70
2023/04/25 09:56:39;;;;;;;7.80;3.20;;;;;;;34.75;15.76;99347.55;108065;1254;60424;-70
2023/04/25 09:59:07;;;;;;;7.00;3.20;;;;;;;34.57;16.01;99346.84;107706;1254;66128;-69
2023/04/25 10:01:36;;;;;;;13.00;3.30;;;;;;;33.95;16.04;99343.46;107913;1254;71442;-69
2023/04/25 10:04:22;;;;;;;7.60;3.00;;;;;;;33.76;16.31;99332.83;107824;1256;74184;-70
2023/04/25 10:07:06;;;;;;;5.40;2.70;;;;;;;34.58;15.79;99328.18;107993;1257;60196;-69
2023/04/25 10:09:33;;;;;;;8.10;2.80;;;;;;;35.09;15.41;99321.68;107898;1254;60290;-69
2023/04/25 10:12:00;;;;;;;6.80;3.00;;;;;;;35.02;15.10;99322.38;107960;1259;67105;-69
2023/04/25 10:14:30;;;;;;;6.20;3.20;;;;;;;34.75;15.51;99316.52;107814;1254;63850;-69
2023/04/25 10:16:58;;;;;;;6.40;3.20;;;;;;;34.77;15.57;99314.08;108002;1257;66407;-70
2023/04/25 10:19:26;;;;;;;5.50;2.90;;;;;;;35.25;15.21;99308.31;108008;1255;59301;-69
2023/04/25 10:22:22;;;;;;;6.70;3.10;;;;;;;35.46;14.98;99309.34;107945;1253;60502;-70
2023/04/25 10:24:49;;;;;;;6.30;2.70;;;;;;;35.81;14.71;99307.82;108006;1254;65871;-70
2023/04/25 10:27:16;;;;;;;6.00;3.00;;;;;;;35.35;14.79;99306.65;107900;1254;63481;-71
2023/04/25 10:29:44;;;;;;;6.80;3.00;;;;;;;34.74;15.30;99308.57;107823;1253;64952;-69
2023/04/25 10:32:12;;;;;;;6.70;3.00;;;;;;;34.33;15.87;99312.09;107934;1257;60426;-68
2023/04/25 10:34:46;;;;;;;5.50;2.60;;;;;;;34.01;16.03;99311.40;107939;1254;60267;-68
2023/04/25 10:37:13;;;;;;;8.00;3.30;;;;;;;33.69;16.45;99310.45;107968;1254;67138;-71
2023/04/25 10:39:41;;;;;;;7.50;2.90;;;;;;;32.91;17.00;99311.98;107997;1254;72201;-71
2023/04/25 10:42:08;;;;;;;10.30;3.20;;;;;;;32.59;17.12;99307.59;107891;1254;74264;-71
2023/04/25 10:44:36;;;;;;;5.50;2.70;;;;;;;32.55;17.05;99306.00;107990;1254;62242;-71
2023/04/25 10:47:05;;;;;;;12.60;3.10;;;;;;;32.80;16.76;99305.36;107868;1254;62969;-71
2023/04/25 10:49:37;;;;;;;8.70;3.20;;;;;;;32.76;16.93;99299.33;107909;1254;73729;-71
2023/04/25 10:52:22;;;;;;;7.00;3.00;;;;;;;32.44;17.25;99298.48;108047;1259;72379;-71
2023/04/25 10:54:54;;;;;;;4.30;3.00;;;;;;;32.31;17.40;99296.13;108095;1254;75114;-71
2023/04/25 10:57:38;;;;;;;12.10;3.40;;;;;;;32.65;17.44;99291.05;108030;1253;61793;-70
2023/04/25 11:00:10;;;;;;;6.70;3.30;;;;;;;33.02;17.17;99290.61;108060;1253;60576;-68
2023/04/25 11:02:52;;;;;;;8.40;3.40;;;;;;;33.24;17.09;99291.10;108201;1253;73840;-69
2023/04/25 11:05:18;;;;;;;;;;;;;;;33.03;17.09;99287.23;108228;1254;68885;-70
2023/04/25 11:07:57;;;;;;;8.40;3.00;;;;;;;32.88;17.23;99280.13;108189;1254;75020;-69
2023/04/25 11:10:35;;;;;;;8.60;3.80;;;;;;;33.48;16.99;99276.17;108005;1255;62748;-69
2023/04/25 11:13:02;;;;;;;13.80;3.30;;;;;;;33.74;16.45;99274.00;108121;1253;61035;-70
2023/04/25 11:15:29;;;;;;;6.70;3.20;;;;;;;33.76;16.71;99276.42;108034;1253;75824;-68
2023/04/25 11:17:56;;;;;;;4.80;3.10;;;;;;;33.79;16.78;99280.78;108050;1254;63907;-71
2023/04/25 11:20:25;;;;;;;5.50;2.80;;;;;;;33.81;16.84;99276.66;108041;1255;74871;-71
2023/04/25 11:22:52;;;;;;;10.40;3.20;;;;;;;33.01;17.40;99272.48;108078;1254;61784;-70
2023/04/25 11:25:19;;;;;;;13.20;3.60;;;;;;;32.95;17.70;99265.00;107932;1253;61533;-70
2023/04/25 11:27:51;;;;;;;10.70;3.20;;;;;;;33.04;17.74;99259.46;108063;1253;74830;-69
2023/04/25 11:30:18;;;;;;;5.00;2.80;;;;;;;33.01;17.08;99260.61;108037;1254;70862;-68
2023/04/25 11:32:45;;;;;;;5.40;2.50;;;;;;;32.26;16.93;99261.04;107878;1253;74399;-70
2023/04/25 11:35:12;;;;;;;5.50;2.80;;;;;;;32.32;16.68;99259.77;107971;1253;62341;-70
2023/04/25 11:37:43;;;;;;;5.00;2.90;;;;;;;32.24;17.07;99259.53;108099;1254;60441;-70
2023/04/25 11:40:11;;;;;;;;;;;;;;;31.63;17.49;99258.63;107966;1254;76272;-69
2023/04/25 11:42:47;;;;;;;8.70;2.80;;;;;;;32.45;17.07;99256.90;107947;1253;72248;-69